Willard, Wisconsin
Current Conditions -  °F | °C
As of 7:54 AM on Monday 22 Dec 2014 (Local Time) from KMFI Reporting Station
Haze Haze  
Wind Chill: 25°   Ceiling: 700
Heat Index: 34°   Visibility: 4mi
Dew Point: 31°   Wind: 13mph
Humidity: 89%   Direction: 140°SE
Pressure: 29.81"   Gusts: NA
Location:  44.73°N, 90.72°W
Report Text: KMFI 221354Z AUTO 14011KT 4SM BR OVC007 01/M01 A2981 RMK AO2 SLP108 T00111006
Loading
Personal Weather Stations






























Interactive Weather Map New forecast layout! Learn more

10-Day Weather Forecast

Advertisements
Track Severe Weather on mobile